Time;durP1;ratioP1;P1;durP2;ratioP2;P2;SDS_P1;SDS_P2;PMS_P1;PMS_P2;Temp;Humidity;BMP_temperature;BMP_pressure;BME280_temperature;BME280_humidity;BME280_pressure;Samples;Min_cycle;Max_cycle;Signal;HPM_P1;HPM_P2
2023/10/25 00:00:37;;;;;;;13.15;3.88;;;;;;;21.78;77.87;96757.44;5070706;28;20028;-77
2023/10/25 00:03:03;;;;;;;19.00;3.97;;;;;;;21.72;77.48;96752.72;5070476;28;20043;-78
2023/10/25 00:05:33;;;;;;;12.63;3.83;;;;;;;21.82;77.75;96760.63;5070442;28;20052;-77
2023/10/25 00:07:58;;;;;;;19.10;3.83;;;;;;;21.73;78.47;96748.97;5070720;28;20020;-77
2023/10/25 00:10:24;;;;;;;18.40;3.97;;;;;;;21.72;79.07;96746.44;5070131;28;20027;-78
2023/10/25 00:12:50;;;;;;;15.52;3.83;;;;;;;21.71;80.04;96726.53;5070478;28;20107;-77
2023/10/25 00:15:15;;;;;;;23.13;3.80;;;;;;;21.72;80.90;96730.94;5070371;28;20502;-77
2023/10/25 00:17:41;;;;;;;19.30;4.28;;;;;;;21.70;80.69;96737.59;5070205;28;20021;-77
2023/10/25 00:20:07;;;;;;;16.65;3.78;;;;;;;21.61;81.39;96724.06;5070312;28;20496;-77
2023/10/25 00:22:32;;;;;;;16.23;4.60;;;;;;;21.66;81.03;96728.94;5070109;28;20024;-76
2023/10/25 00:24:58;;;;;;;16.45;4.03;;;;;;;21.67;80.40;96743.41;5070112;28;20032;-76
2023/10/25 00:27:23;;;;;;;15.68;4.10;;;;;;;21.77;77.98;96716.78;5070167;28;20036;-75
2023/10/25 00:29:49;;;;;;;15.73;3.53;;;;;;;21.84;77.14;96718.56;5070203;28;20424;-75
2023/10/25 00:32:14;;;;;;;23.77;4.18;;;;;;;21.85;76.66;96722.13;5070098;28;20034;-76
2023/10/25 00:34:41;;;;;;;17.13;4.05;;;;;;;21.81;76.94;96739.91;5069837;28;20492;-76
2023/10/25 00:37:06;;;;;;;16.00;4.13;;;;;;;21.93;74.56;96712.03;5069800;28;20067;-76
2023/10/25 00:39:32;;;;;;;24.13;4.10;;;;;;;22.00;74.01;96698.53;5070931;28;20032;-77
2023/10/25 00:41:57;;;;;;;15.15;4.28;;;;;;;21.99;73.06;96696.84;5069793;28;20035;-77
2023/10/25 00:44:23;;;;;;;28.17;3.92;;;;;;;21.97;72.67;96705.19;5069901;28;20027;-77
2023/10/25 00:46:48;;;;;;;18.80;3.50;;;;;;;21.96;71.63;96689.91;5070871;28;20031;-77
2023/10/25 00:49:14;;;;;;;15.60;4.15;;;;;;;22.10;69.69;96701.81;5069972;28;20389;-76
2023/10/25 00:51:40;;;;;;;18.83;4.35;;;;;;;22.10;67.98;96701.81;5069534;28;20107;-77
2023/10/25 00:54:06;;;;;;;15.10;4.15;;;;;;;22.07;68.09;96694.88;5069518;28;20021;-77
2023/10/25 00:56:33;;;;;;;17.63;4.03;;;;;;;22.17;68.87;96694.59;5069557;28;20033;-77
2023/10/25 00:58:59;;;;;;;14.68;4.18;;;;;;;22.19;69.10;96697.13;5069435;28;20107;-76
2023/10/25 01:01:26;;;;;;;26.83;4.53;;;;;;;22.31;68.29;96682.00;5069601;28;20162;-76
2023/10/25 01:03:52;;;;;;;26.30;4.47;;;;;;;22.28;67.36;96679.66;5069057;28;20024;-76
2023/10/25 01:06:18;;;;;;;11.93;3.70;;;;;;;22.26;67.47;96692.63;5064017;28;20105;-77
2023/10/25 01:08:44;;;;;;;18.35;4.07;;;;;;;22.25;65.63;96688.19;5068872;28;20452;-77
2023/10/25 01:11:10;;;;;;;17.08;3.67;;;;;;;22.18;66.27;96688.09;5069156;28;20031;-77
2023/10/25 01:13:35;;;;;;;15.95;4.10;;;;;;;22.12;66.18;96683.41;5069367;28;20033;-78
2023/10/25 01:16:01;;;;;;;11.65;3.58;;;;;;;22.24;65.89;96691.97;5069102;28;20024;-77
2023/10/25 01:18:27;;;;;;;12.02;3.55;;;;;;;22.28;65.84;96682.38;5068720;28;20121;-77
2023/10/25 01:20:52;;;;;;;22.77;5.32;;;;;;;22.32;65.89;96705.50;5068902;28;20055;-77
2023/10/25 01:23:18;;;;;;;16.85;4.00;;;;;;;22.30;66.71;96696.66;5069120;28;20478;-77
2023/10/25 01:25:43;;;;;;;8.60;3.30;;;;;;;22.36;65.96;96698.63;5069016;28;20048;-77
2023/10/25 01:28:10;;;;;;;14.15;3.95;;;;;;;22.36;66.32;96704.94;5069299;28;20191;-76
2023/10/25 01:30:35;;;;;;;16.92;4.40;;;;;;;22.43;66.44;96707.72;5052604;28;20040;-75
2023/10/25 01:33:01;;;;;;;16.70;3.83;;;;;;;22.40;67.46;96700.78;5068892;28;20030;-76
2023/10/25 01:35:27;;;;;;;10.65;3.70;;;;;;;22.45;66.26;96700.22;5070489;28;20098;-77
2023/10/25 01:37:52;;;;;;;13.85;3.45;;;;;;;22.38;65.32;96680.22;5069003;28;20029;-76
2023/10/25 01:40:18;;;;;;;21.85;3.88;;;;;;;22.34;64.70;96687.91;5069121;28;20032;-76
2023/10/25 01:42:44;;;;;;;22.23;4.32;;;;;;;22.29;65.64;96694.97;5068992;28;20021;-76
2023/10/25 01:45:11;;;;;;;19.98;3.88;;;;;;;22.31;65.04;96693.75;5068976;28;20021;-77
2023/10/25 01:47:37;;;;;;;19.75;4.03;;;;;;;22.20;64.77;96675.16;5085907;28;20024;-76
2023/10/25 01:50:02;;;;;;;23.67;4.93;;;;;;;22.17;64.66;96669.22;5068673;28;20396;-76
2023/10/25 01:52:28;;;;;;;17.65;3.75;;;;;;;22.16;63.13;96665.66;5068871;28;20043;-75
2023/10/25 01:54:53;;;;;;;17.10;3.40;;;;;;;22.24;62.30;96694.69;5070003;28;20021;-77
2023/10/25 01:57:19;;;;;;;14.45;3.45;;;;;;;22.22;63.05;96694.03;5068824;28;20515;-76
2023/10/25 01:59:45;;;;;;;15.02;3.75;;;;;;;22.13;64.18;96694.13;5068704;28;20039;-76
2023/10/25 02:02:11;;;;;;;20.83;3.60;;;;;;;22.13;64.99;96696.84;5068853;28;20024;-76
2023/10/25 02:04:36;;;;;;;17.73;4.22;;;;;;;22.17;64.87;96680.13;5068996;28;20029;-76
2023/10/25 02:07:02;;;;;;;18.48;4.70;;;;;;;22.14;66.44;96693.09;5069854;28;20024;-76
2023/10/25 02:09:28;;;;;;;15.27;4.03;;;;;;;22.08;67.62;96682.09;5068549;28;20074;-76
2023/10/25 02:11:54;;;;;;;14.35;3.72;;;;;;;21.95;70.15;96685.47;5068639;28;20082;-76
2023/10/25 02:14:19;;;;;;;15.35;3.95;;;;;;;21.91;70.98;96680.56;5068678;28;20036;-76
2023/10/25 02:16:45;;;;;;;15.77;3.47;;;;;;;21.80;70.42;96684.59;5069967;28;20029;-75
2023/10/25 02:19:10;;;;;;;27.65;4.03;;;;;;;21.81;69.77;96686.25;5068576;28;20038;-75
2023/10/25 02:21:36;;;;;;;15.80;4.18;;;;;;;21.80;68.83;96684.59;5068512;28;20052;-76
2023/10/25 02:24:02;;;;;;;15.27;3.85;;;;;;;21.75;68.85;96687.00;5068602;28;20025;-76
2023/10/25 02:26:28;;;;;;;13.85;3.75;;;;;;;21.88;65.74;96683.63;5068716;28;20020;-77
2023/10/25 02:28:55;;;;;;;15.45;3.38;;;;;;;21.92;64.69;96690.44;5070599;28;20435;-76
2023/10/25 02:31:20;;;;;;;18.45;4.03;;;;;;;22.00;63.11;96704.81;5072390;28;20044;-76
2023/10/25 02:33:46;;;;;;;17.83;4.13;;;;;;;22.11;63.20;96709.81;5072328;28;20066;-77
2023/10/25 02:36:11;;;;;;;13.55;3.08;;;;;;;22.14;61.51;96682.22;5072182;28;20480;-78
2023/10/25 02:38:37;;;;;;;14.30;3.47;;;;;;;22.19;60.86;96667.16;5072305;28;20029;-77
2023/10/25 02:41:02;;;;;;;15.73;3.45;;;;;;;22.26;60.59;96679.00;5072049;28;20062;-77
2023/10/25 02:43:28;;;;;;;14.52;3.97;;;;;;;22.35;60.04;96669.69;5055323;28;20035;-76
2023/10/25 02:46:01;;;;;;;14.15;3.47;;;;;;;22.42;58.59;96654.28;5071983;28;20025;-77
2023/10/25 02:48:26;;;;;;;19.77;3.45;;;;;;;22.44;58.46;96652.19;5072002;28;20408;-77
2023/10/25 02:50:52;;;;;;;13.80;3.67;;;;;;;22.44;58.37;96661.22;5071968;28;20020;-76
2023/10/25 02:53:17;;;;;;;11.90;3.42;;;;;;;22.55;57.29;96652.53;5071354;28;20036;-77
2023/10/25 02:55:47;;;;;;;12.40;3.15;;;;;;;22.59;56.82;96644.81;5053257;28;20029;-76
2023/10/25 02:58:13;;;;;;;16.58;3.17;;;;;;;22.56;56.40;96631.59;5035593;28;20029;-76
2023/10/25 03:00:38;;;;;;;26.08;3.50;;;;;;;22.63;55.25;96632.50;5051782;28;20024;-76
2023/10/25 03:03:04;;;;;;;13.27;3.40;;;;;;;22.64;54.26;96618.66;5051642;28;20455;-76
2023/10/25 03:05:29;;;;;;;16.48;3.55;;;;;;;22.70;54.24;96617.13;5051611;28;20021;-76
2023/10/25 03:07:55;;;;;;;28.48;4.45;;;;;;;22.71;53.55;96618.78;5035081;28;20033;-76
2023/10/25 03:10:21;;;;;;;16.75;4.57;;;;;;;22.77;53.18;96618.00;5059896;28;20385;-76
2023/10/25 03:12:46;;;;;;;19.35;6.72;;;;;;;22.80;53.39;96627.69;5072873;28;20154;-76
2023/10/25 03:15:12;;;;;;;13.55;3.08;;;;;;;22.84;54.46;96629.84;5047605;28;20529;-76
2023/10/25 03:17:37;;;;;;;15.02;3.65;;;;;;;22.85;54.07;96626.09;5045313;28;20027;-76
2023/10/25 03:20:04;;;;;;;16.27;3.42;;;;;;;22.82;54.35;96623.75;5054344;28;20052;-76
2023/10/25 03:22:31;;;;;;;7.95;3.05;;;;;;;22.80;54.40;96614.03;5071339;28;20017;-76
2023/10/25 03:24:57;;;;;;;11.68;3.33;;;;;;;22.80;53.25;96623.06;5063953;28;20021;-76
2023/10/25 03:27:22;;;;;;;19.35;3.92;;;;;;;22.83;53.38;96616.38;5051126;28;20051;-77
2023/10/25 03:29:48;;;;;;;17.83;3.30;;;;;;;22.79;53.14;96607.78;5049183;28;20032;-72
2023/10/25 03:32:14;;;;;;;16.50;3.42;;;;;;;22.83;52.70;96611.78;5088041;28;20028;-72
2023/10/25 03:34:41;;;;;;;11.18;3.17;;;;;;;22.87;52.07;96602.19;5072251;28;20035;-71
2023/10/25 03:37:06;;;;;;;15.85;2.92;;;;;;;22.87;52.17;96612.25;5072162;28;20035;-72
2023/10/25 03:39:32;;;;;;;11.45;3.80;;;;;;;22.86;52.30;96613.25;5069971;28;20036;-72
2023/10/25 03:41:58;;;;;;;21.05;3.67;;;;;;;22.83;52.31;96614.50;5071102;28;20032;-73
2023/10/25 03:44:23;;;;;;;11.55;3.38;;;;;;;22.74;52.87;96612.94;5072056;28;20026;-72
2023/10/25 03:46:49;;;;;;;15.57;2.67;;;;;;;22.74;52.30;96612.09;5072064;28;20032;-71
2023/10/25 03:49:14;;;;;;;17.27;3.40;;;;;;;22.83;51.77;96617.22;5071708;28;20449;-72
2023/10/25 03:51:40;;;;;;;20.63;4.40;;;;;;;22.77;52.89;96615.28;5071912;28;20471;-71
2023/10/25 03:54:06;;;;;;;22.55;3.33;;;;;;;22.73;53.85;96610.44;5071097;28;20055;-75
2023/10/25 03:56:31;;;;;;;25.42;4.80;;;;;;;22.58;54.20;96602.22;5071702;28;20116;-78
2023/10/25 03:58:57;;;;;;;18.88;4.80;;;;;;;22.61;54.86;96604.59;5072097;28;20538;-71
2023/10/25 04:01:22;;;;;;;14.75;3.15;;;;;;;22.55;54.77;96608.06;5087015;28;20452;-71
2023/10/25 04:03:48;;;;;;;18.70;3.80;;;;;;;22.56;55.51;96607.03;5070501;28;20131;-72
2023/10/25 04:06:13;;;;;;;17.23;3.72;;;;;;;22.51;55.15;96607.63;5070373;28;20494;-72
2023/10/25 04:08:39;;;;;;;17.77;4.10;;;;;;;22.49;55.73;96609.69;5087151;28;20495;-73
2023/10/25 04:11:04;;;;;;;13.60;4.07;;;;;;;22.41;56.19;96598.06;5068519;28;20032;-76
2023/10/25 04:13:30;;;;;;;22.00;3.40;;;;;;;22.36;56.79;96592.34;5067745;28;20824;-76
2023/10/25 04:15:57;;;;;;;19.17;3.90;;;;;;;22.32;58.31;96602.78;5067518;28;20472;-72
2023/10/25 04:18:24;;;;;;;18.85;3.75;;;;;;;22.15;60.98;96596.69;5068506;28;20055;-75
2023/10/25 04:20:50;;;;;;;13.70;3.60;;;;;;;22.12;60.12;96590.78;5069745;28;20109;-76
2023/10/25 04:23:15;;;;;;;24.77;4.68;;;;;;;22.09;60.06;96586.56;5069521;28;20024;-78
2023/10/25 04:25:41;;;;;;;12.82;3.03;;;;;;;22.15;57.55;96582.22;5069816;28;20447;-78
2023/10/25 04:28:07;;;;;;;13.63;3.42;;;;;;;22.09;57.29;96581.13;5070236;28;20047;-76
2023/10/25 04:30:33;;;;;;;12.00;3.30;;;;;;;22.20;55.53;96571.63;5070089;28;20028;-75
2023/10/25 04:32:58;;;;;;;24.83;3.35;;;;;;;22.35;54.09;96564.25;5071138;28;20039;-77
2023/10/25 04:35:24;;;;;;;22.75;4.18;;;;;;;22.42;53.72;96565.19;5069868;28;20032;-77
2023/10/25 04:37:49;;;;;;;28.55;4.45;;;;;;;22.37;53.62;96553.16;5069705;28;20475;-76
2023/10/25 04:40:15;;;;;;;18.33;2.97;;;;;;;22.45;53.99;96550.31;5069961;28;20020;-73
2023/10/25 04:42:40;;;;;;;19.35;3.35;;;;;;;22.38;54.69;96561.16;5069496;28;20028;-72
2023/10/25 04:45:06;;;;;;;11.80;3.28;;;;;;;22.33;54.53;96560.88;5071133;28;20024;-72
2023/10/25 04:47:32;;;;;;;13.43;3.30;;;;;;;22.33;54.34;96568.22;5069428;28;20027;-72
2023/10/25 04:50:01;;;;;;;27.88;3.55;;;;;;;22.27;54.65;96571.72;5070741;28;20119;-73
2023/10/25 04:52:27;;;;;;;20.70;3.35;;;;;;;22.28;53.94;96573.38;5069019;28;20454;-73
2023/10/25 04:54:52;;;;;;;15.98;3.15;;;;;;;22.35;53.47;96579.75;5069282;28;20039;-71
2023/10/25 04:57:18;;;;;;;13.65;2.95;;;;;;;22.36;54.12;96582.31;5069326;28;20024;-72
2023/10/25 04:59:43;;;;;;;18.10;3.92;;;;;;;22.35;54.06;96577.03;5070528;28;20040;-73
2023/10/25 05:02:09;;;;;;;17.00;3.00;;;;;;;22.33;54.11;96579.13;5070630;28;21128;-73
2023/10/25 05:04:34;;;;;;;23.02;3.30;;;;;;;22.32;53.85;96569.25;5069145;28;20028;-73
2023/10/25 05:07:00;;;;;;;24.83;3.35;;;;;;;22.38;53.52;96552.13;5086430;28;20107;-71
2023/10/25 05:09:26;;;;;;;16.20;3.15;;;;;;;22.41;53.21;96559.91;5069114;28;20028;-72
2023/10/25 05:11:56;;;;;;;13.57;2.92;;;;;;;22.42;53.04;96554.28;5069382;28;20381;-73
2023/10/25 05:14:22;;;;;;;23.95;3.05;;;;;;;22.44;53.08;96551.34;5069473;28;20123;-71
2023/10/25 05:16:48;;;;;;;18.02;4.10;;;;;;;22.41;53.21;96579.00;5069057;28;20075;-72
2023/10/25 05:19:14;;;;;;;28.67;3.38;;;;;;;22.36;53.40;96581.44;5069204;28;20052;-71
2023/10/25 05:21:42;;;;;;;17.95;4.07;;;;;;;22.41;53.32;96595.34;5070380;28;20044;-72
2023/10/25 05:24:08;;;;;;;20.60;3.97;;;;;;;22.38;53.65;96609.34;5086355;28;20111;-73
2023/10/25 05:26:34;;;;;;;20.30;3.13;;;;;;;22.37;54.17;96602.19;5070503;28;20027;-72
2023/10/25 05:29:00;;;;;;;17.58;3.60;;;;;;;22.30;54.14;96596.69;5070790;28;20129;-72
2023/10/25 05:31:26;;;;;;;21.50;3.90;;;;;;;22.30;54.36;96598.56;5069832;28;20116;-74
2023/10/25 05:33:52;;;;;;;7.15;2.42;;;;;;;22.32;54.28;96602.78;5069277;28;20044;-72
2023/10/25 05:36:18;;;;;;;21.25;3.45;;;;;;;22.32;54.34;96618.28;5069300;28;20056;-72
2023/10/25 05:38:44;;;;;;;19.98;3.15;;;;;;;22.25;54.91;96601.84;5070581;28;20055;-72
2023/10/25 05:41:13;;;;;;;17.27;4.18;;;;;;;22.23;54.50;96609.38;5070657;28;20120;-72
2023/10/25 05:43:41;;;;;;;18.15;3.47;;;;;;;22.26;54.55;96597.25;5066421;28;20051;-72
2023/10/25 05:46:06;;;;;;;20.77;2.83;;;;;;;22.23;54.74;96613.97;5069174;28;20056;-76
2023/10/25 05:48:35;;;;;;;17.75;3.58;;;;;;;22.25;54.70;96617.34;5070450;28;20059;-73
2023/10/25 05:51:04;;;;;;;17.83;3.55;;;;;;;22.27;54.50;96609.84;5070411;28;20090;-74
2023/10/25 05:53:30;;;;;;;31.90;4.10;;;;;;;22.15;55.03;96587.69;5070404;28;20477;-75
2023/10/25 05:55:56;;;;;;;20.85;3.28;;;;;;;22.19;54.99;96602.63;5085743;28;20124;-72
2023/10/25 05:58:22;;;;;;;22.55;3.22;;;;;;;22.19;55.19;96591.72;5069049;28;20440;-72
2023/10/25 06:00:55;;;;;;;18.60;3.72;;;;;;;22.22;55.26;96612.28;5069951;28;20024;-73
2023/10/25 06:03:22;;;;;;;29.13;4.20;;;;;;;22.23;55.08;96603.94;5071563;28;20036;-72
2023/10/25 06:05:54;;;;;;;27.70;3.80;;;;;;;22.18;55.68;96611.00;5072976;28;20492;-72
2023/10/25 06:08:20;;;;;;;;;;;;;;;22.25;55.54;96622.81;5073578;28;20024;-72
2023/10/25 06:10:45;;;;;;;16.92;3.67;;;;;;;22.25;55.91;96623.66;5072716;28;20015;-71
2023/10/25 06:13:11;;;;;;;26.17;3.25;;;;;;;22.34;55.61;96617.06;5072776;28;20020;-71
2023/10/25 06:15:37;;;;;;;24.63;3.95;;;;;;;22.39;56.25;96622.81;5089295;28;20020;-72
2023/10/25 06:18:07;;;;;;;22.00;3.88;;;;;;;22.39;55.69;96619.22;5072419;28;20456;-72
2023/10/25 06:20:34;;;;;;;25.00;5.13;;;;;;;22.58;55.43;96627.63;5072481;28;20094;-73
2023/10/25 06:23:02;;;;;;;27.75;3.90;;;;;;;22.75;54.21;96625.53;5072531;28;20547;-72
2023/10/25 06:25:31;;;;;;;30.30;3.58;;;;;;;22.88;54.26;96633.88;5072392;28;20032;-73
2023/10/25 06:27:59;;;;;;;16.65;3.53;;;;;;;23.05;53.74;96629.84;5073584;28;20107;-72
2023/10/25 06:30:27;;;;;;;25.10;4.97;;;;;;;23.42;53.44;96622.44;5072570;28;20027;-72
2023/10/25 06:32:53;;;;;;;22.05;4.65;;;;;;;23.66;53.22;96635.66;5072332;28;20107;-72
2023/10/25 06:35:18;;;;;;;17.80;4.47;;;;;;;24.14;51.77;96623.81;5089210;28;20120;-73
2023/10/25 06:37:44;;;;;;;27.13;4.47;;;;;;;24.48;50.57;96641.22;5054867;28;20205;-72
2023/10/25 06:40:10;;;;;;;20.90;4.53;;;;;;;24.65;50.07;96642.53;5088971;28;20035;-72
2023/10/25 06:42:36;;;;;;;21.00;3.63;;;;;;;24.89;49.78;96617.41;5072067;28;20504;-73
2023/10/25 06:45:02;;;;;;;24.23;4.13;;;;;;;25.29;49.13;96641.06;5071991;28;20029;-72
2023/10/25 06:47:28;;;;;;;28.25;4.85;;;;;;;26.05;47.59;96641.50;5071951;28;20066;-73
2023/10/25 06:49:55;;;;;;;27.27;4.45;;;;;;;26.06;47.37;96647.81;5071953;28;20028;-73
2023/10/25 06:52:21;;;;;;;23.42;4.60;;;;;;;25.86;46.98;96642.38;5073129;28;20396;-73
2023/10/25 06:54:47;;;;;;;24.42;4.72;;;;;;;25.45;48.19;96633.47;5071758;28;20032;-73
2023/10/25 06:57:13;;;;;;;21.30;4.18;;;;;;;25.32;48.56;96651.59;5088594;28;20032;-72
2023/10/25 06:59:40;;;;;;;24.48;4.93;;;;;;;25.31;48.58;96649.94;5072019;28;20400;-73
2023/10/25 07:02:28;;;;;;;25.50;4.85;;;;;;;25.38;49.26;96629.91;5071727;28;20029;-73
2023/10/25 07:05:00;;;;;;;33.88;5.72;;;;;;;25.32;48.93;96650.75;5067960;28;20048;-72
2023/10/25 07:07:28;;;;;;;16.00;4.47;;;;;;;25.03;48.90;96621.88;5090143;28;20539;-71
2023/10/25 07:09:54;;;;;;;29.48;5.00;;;;;;;24.96;49.98;96651.09;5071610;28;20400;-73
2023/10/25 07:12:20;;;;;;;20.45;4.00;;;;;;;24.90;49.61;96646.47;5071634;28;20028;-72
2023/10/25 07:14:45;;;;;;;19.20;3.75;;;;;;;25.00;48.40;96644.19;5070671;28;20020;-72
2023/10/25 07:17:11;;;;;;;22.88;3.42;;;;;;;24.84;48.80;96650.03;5072362;28;20032;-72
2023/10/25 07:19:36;;;;;;;29.33;4.50;;;;;;;24.75;48.77;96638.38;5054608;28;20108;-71
2023/10/25 07:22:02;;;;;;;15.77;3.92;;;;;;;24.83;48.47;96642.84;5052506;28;20084;-72
2023/10/25 07:24:27;;;;;;;26.35;4.32;;;;;;;24.76;49.06;96644.72;5051705;28;20021;-72
2023/10/25 07:26:54;;;;;;;28.98;4.25;;;;;;;24.82;48.63;96635.72;5052548;28;20021;-71
2023/10/25 07:29:19;;;;;;;23.83;5.70;;;;;;;25.05;48.17;96632.59;5034561;28;20056;-72
2023/10/25 07:31:45;;;;;;;29.52;4.82;;;;;;;25.29;47.72;96637.47;5051093;28;20063;-72
2023/10/25 07:34:10;;;;;;;23.98;4.85;;;;;;;25.25;47.53;96653.50;5050253;28;20036;-72
2023/10/25 07:36:35;;;;;;;31.05;6.43;;;;;;;25.15;48.08;96646.72;5051269;28;20028;-72
2023/10/25 07:39:01;;;;;;;30.27;6.15;;;;;;;25.37;47.21;96631.81;5050928;28;20029;-73
2023/10/25 07:41:26;;;;;;;25.33;5.07;;;;;;;25.31;46.96;96654.56;5052488;28;20047;-72
2023/10/25 07:43:52;;;;;;;24.88;4.70;;;;;;;25.51;46.72;96662.81;5052263;28;20025;-72
2023/10/25 07:46:17;;;;;;;29.83;5.55;;;;;;;25.50;46.78;96663.88;5050832;28;20035;-72
2023/10/25 07:48:44;;;;;;;21.90;4.47;;;;;;;25.49;46.35;96660.28;5052296;28;20020;-72
2023/10/25 07:51:09;;;;;;;19.45;4.32;;;;;;;25.26;47.16;96637.88;5051909;28;20101;-72
2023/10/25 07:53:35;;;;;;;27.38;5.10;;;;;;;25.17;47.47;96661.88;5052390;28;20107;-73
2023/10/25 07:56:04;;;;;;;31.70;5.78;;;;;;;25.27;47.31;96642.31;5050943;28;20056;-73
2023/10/25 07:58:29;;;;;;;34.40;4.97;;;;;;;25.47;46.30;96642.34;5052037;28;20056;-73
2023/10/25 08:00:55;;;;;;;25.13;4.80;;;;;;;25.66;45.90;96658.81;5051877;28;20067;-73
2023/10/25 08:03:20;;;;;;;26.50;5.38;;;;;;;25.54;45.89;96649.53;5050426;28;20434;-73
2023/10/25 08:05:46;;;;;;;34.42;5.05;;;;;;;25.55;46.05;96644.91;5051713;28;20032;-72
2023/10/25 08:08:12;;;;;;;32.03;4.38;;;;;;;25.58;46.29;96655.44;5051706;28;20017;-72
2023/10/25 08:10:37;;;;;;;29.30;5.43;;;;;;;25.83;45.31;96651.84;5051894;28;20048;-72
2023/10/25 08:13:03;;;;;;;24.02;4.55;;;;;;;25.87;45.31;96655.03;5050465;28;20028;-72
2023/10/25 08:15:28;;;;;;;28.33;4.43;;;;;;;25.97;45.06;96671.00;5052103;28;20024;-73
2023/10/25 08:17:54;;;;;;;42.30;4.78;;;;;;;25.82;44.29;96657.53;5051560;28;20408;-72
2023/10/25 08:20:19;;;;;;;23.80;4.00;;;;;;;25.84;44.24;96658.19;5051267;28;20053;-72
2023/10/25 08:22:45;;;;;;;15.75;3.50;;;;;;;25.86;43.40;96656.91;5050560;28;20033;-72
2023/10/25 08:25:11;;;;;;;33.65;4.60;;;;;;;25.81;43.35;96661.31;5050157;28;20036;-71
2023/10/25 08:27:36;;;;;;;26.88;4.55;;;;;;;25.79;43.34;96658.81;5051459;28;20025;-73
2023/10/25 08:30:03;;;;;;;30.33;4.07;;;;;;;25.78;43.33;96657.13;5050332;28;20110;-72
2023/10/25 08:32:29;;;;;;;27.88;4.30;;;;;;;25.88;43.40;96651.22;5049940;28;20033;-73
2023/10/25 08:34:54;;;;;;;28.73;4.00;;;;;;;25.93;44.02;96647.84;5033299;28;20098;-72
2023/10/25 08:37:19;;;;;;;35.13;4.28;;;;;;;26.11;43.90;96648.88;5049691;28;20120;-71
2023/10/25 08:39:45;;;;;;;34.42;4.93;;;;;;;26.16;43.90;96638.13;5033397;28;20128;-72
2023/10/25 08:42:14;;;;;;;36.92;4.18;;;;;;;26.26;43.48;96634.94;5051172;28;20029;-73
2023/10/25 08:44:41;;;;;;;24.98;3.63;;;;;;;26.53;42.55;96627.44;5081056;28;20107;-72
2023/10/25 08:47:09;;;;;;;32.65;4.72;;;;;;;26.56;42.89;96644.34;5069860;28;20476;-71
2023/10/25 08:49:36;;;;;;;37.50;4.75;;;;;;;26.70;42.59;96645.13;5069694;28;20108;-72
2023/10/25 08:52:02;;;;;;;37.55;5.25;;;;;;;27.02;42.29;96638.66;5069604;28;20395;-72
2023/10/25 08:54:29;;;;;;;39.05;5.15;;;;;;;27.34;41.96;96640.34;5070745;28;20043;-72
2023/10/25 08:56:54;;;;;;;28.50;4.50;;;;;;;27.54;41.45;96636.63;5086551;28;20025;-72
2023/10/25 08:59:20;;;;;;;20.88;3.50;;;;;;;27.90;40.81;96636.75;5070549;28;20036;-73
2023/10/25 09:01:45;;;;;;;24.35;5.00;;;;;;;28.04;40.46;96620.97;5069646;28;20110;-73
2023/10/25 09:04:11;;;;;;;30.83;4.93;;;;;;;28.18;39.97;96617.88;5061959;28;20025;-73
2023/10/25 09:06:36;;;;;;;43.60;5.20;;;;;;;28.23;40.03;96619.97;5050779;28;20078;-72
2023/10/25 09:09:05;;;;;;;48.15;6.70;;;;;;;28.26;40.18;96614.84;5050925;28;20027;-73
2023/10/25 09:11:57;;;;;;;44.60;4.80;;;;;;;28.23;40.21;96612.56;5049250;28;20035;-73
2023/10/25 09:14:22;;;;;;;40.28;5.10;;;;;;;28.20;40.04;96615.75;5064697;28;20047;-72
2023/10/25 09:16:48;;;;;;;38.85;4.90;;;;;;;28.18;40.25;96615.13;5032644;28;20037;-73
2023/10/25 09:19:19;;;;;;;41.05;5.60;;;;;;;28.44;39.93;96623.09;5056782;28;20395;-73
2023/10/25 09:21:44;;;;;;;34.65;5.80;;;;;;;28.69;39.61;96624.94;5068916;28;20096;-71
2023/10/25 09:24:10;;;;;;;37.08;5.53;;;;;;;28.89;39.49;96620.00;5069228;28;20109;-72
2023/10/25 09:26:39;;;;;;;45.25;5.53;;;;;;;29.32;38.84;96617.94;5052412;28;20056;-72
2023/10/25 09:29:05;;;;;;;34.85;5.95;;;;;;;29.72;38.65;96622.84;5069393;28;20025;-73
2023/10/25 09:31:31;;;;;;;44.67;4.40;;;;;;;30.05;37.35;96617.59;5069015;28;20060;-73
2023/10/25 09:33:58;;;;;;;31.17;4.32;;;;;;;30.12;37.58;96607.25;5069277;28;20055;-73
2023/10/25 09:36:23;;;;;;;28.70;5.20;;;;;;;30.87;36.72;96615.56;5102802;28;20028;-72
2023/10/25 09:38:50;;;;;;;38.60;5.28;;;;;;;31.78;35.75;96607.09;5061651;28;20020;-72
2023/10/25 09:41:17;;;;;;;33.28;5.75;;;;;;;32.55;34.24;96593.31;5069075;28;20029;-72
2023/10/25 09:43:52;;;;;;;51.45;6.00;;;;;;;33.34;32.62;96580.75;5085581;28;20094;-72
2023/10/25 09:46:22;;;;;;;31.83;4.95;;;;;;;34.84;31.38;96579.38;5069132;28;20032;-73
2023/10/25 09:48:55;;;;;;;39.00;5.40;;;;;;;35.42;30.62;96569.84;5070452;28;20028;-73
2023/10/25 09:51:33;;;;;;;28.27;4.30;;;;;;;35.87;29.38;96560.72;5070251;28;20036;-72
2023/10/25 09:54:11;;;;;;;39.60;5.90;;;;;;;35.89;29.59;96550.97;5069148;28;20032;-74
2023/10/25 09:56:37;;;;;;;43.15;5.45;;;;;;;35.17;29.97;96547.53;5069991;28;20029;-73
2023/10/25 09:59:04;;;;;;;47.65;5.35;;;;;;;34.74;30.05;96545.97;5068883;28;20020;-73
2023/10/25 10:01:30;;;;;;;34.33;5.30;;;;;;;35.46;29.61;96553.44;5068797;28;20062;-73
2023/10/25 10:04:02;;;;;;;19.27;3.75;;;;;;;35.19;29.62;96539.75;5068891;28;20064;-73
2023/10/25 10:06:39;;;;;;;33.28;5.55;;;;;;;34.47;30.34;96548.91;5068706;28;20028;-73
2023/10/25 10:09:20;;;;;;;43.53;5.70;;;;;;;34.42;30.74;96554.44;5070125;28;20155;-73
2023/10/25 10:11:53;;;;;;;35.60;4.80;;;;;;;33.96;30.66;96541.34;5069720;28;20099;-73
2023/10/25 10:14:35;;;;;;;29.80;4.53;;;;;;;33.57;31.55;96544.34;5069022;28;20035;-73
2023/10/25 10:17:19;;;;;;;35.10;5.35;;;;;;;32.56;32.45;96539.63;5063637;28;20545;-73
2023/10/25 10:19:49;;;;;;;44.63;5.20;;;;;;;32.11;32.95;96528.78;5084772;28;20023;-72
2023/10/25 10:22:19;;;;;;;40.88;5.38;;;;;;;31.57;33.52;96542.31;5068826;28;20031;-72
2023/10/25 10:24:45;;;;;;;31.05;4.25;;;;;;;31.08;34.36;96529.25;5068487;28;20519;-73
2023/10/25 10:27:18;;;;;;;42.53;5.75;;;;;;;31.58;34.14;96537.63;5070134;28;20025;-72
2023/10/25 10:29:48;;;;;;;46.88;5.18;;;;;;;33.28;32.21;96515.25;5068388;28;20029;-73
2023/10/25 10:32:14;;;;;;;31.15;5.60;;;;;;;33.26;31.73;96517.44;5068513;28;20048;-73
2023/10/25 10:34:48;;;;;;;37.50;5.68;;;;;;;32.10;33.05;96519.63;5068637;28;20400;-74
2023/10/25 10:37:20;;;;;;;32.50;3.47;;;;;;;31.23;34.01;96524.00;5085423;28;20020;-72
2023/10/25 10:39:58;;;;;;;38.60;5.55;;;;;;;30.82;34.83;96521.56;5084877;28;20027;-73
2023/10/25 10:42:38;;;;;;;45.83;6.15;;;;;;;31.12;34.97;96517.47;5085208;28;20031;-72
2023/10/25 10:45:06;;;;;;;38.38;5.68;;;;;;;31.59;34.12;96522.72;5068661;28;20484;-74
2023/10/25 10:47:43;;;;;;;28.77;4.28;;;;;;;32.93;32.45;96501.00;5051671;28;20027;-74
2023/10/25 10:50:23;;;;;;;31.48;4.93;;;;;;;33.96;31.11;96496.94;5072326;28;20484;-74
2023/10/25 10:52:51;;;;;;;37.65;5.13;;;;;;;34.41;30.96;96482.47;5071853;28;20048;-74
2023/10/25 10:55:24;;;;;;;40.25;5.55;;;;;;;35.05;30.61;96494.91;5072168;28;20025;-73
2023/10/25 10:57:50;;;;;;;44.88;5.18;;;;;;;34.81;30.11;96497.38;5088444;28;20453;-73
2023/10/25 11:00:17;;;;;;;31.33;4.90;;;;;;;33.19;31.75;96489.09;5072000;28;20082;-73
2023/10/25 11:02:50;;;;;;;28.13;5.00;;;;;;;33.59;31.89;96488.59;5088820;28;20069;-75
2023/10/25 11:05:17;;;;;;;42.53;5.85;;;;;;;34.59;30.94;96488.41;5071869;28;20028;-75
2023/10/25 11:07:43;;;;;;;25.23;5.15;;;;;;;35.39;29.87;96492.47;5071922;28;20486;-74
2023/10/25 11:10:10;;;;;;;36.72;4.68;;;;;;;34.89;30.15;96492.41;5071802;28;20132;-72
2023/10/25 11:12:36;;;;;;;33.42;4.93;;;;;;;34.02;31.15;96498.63;5071740;28;20488;-73
2023/10/25 11:15:03;;;;;;;41.00;5.03;;;;;;;33.14;32.12;96487.09;5088284;28;20090;-74
2023/10/25 11:17:30;;;;;;;37.90;4.63;;;;;;;33.09;32.07;96495.38;5071521;28;20096;-74
2023/10/25 11:19:55;;;;;;;33.45;5.22;;;;;;;33.18;31.43;96492.97;5071027;28;20101;-73
2023/10/25 11:22:21;;;;;;;23.17;4.55;;;;;;;32.75;32.45;96485.56;5071548;28;20028;-73
2023/10/25 11:24:48;;;;;;;23.60;3.92;;;;;;;32.02;32.97;96492.38;5072705;28;20099;-74